sensor_id;sensor_type;location;lat;lon;timestamp;P1;durP1;ratioP1;P2;durP2;ratioP2
6519;SDS011;3293;51.690;5.982;2022-12-07T00:04:48;28.20;;;20.53;;
6519;SDS011;3293;51.690;5.982;2022-12-07T00:09:49;33.27;;;21.87;;
6519;SDS011;3293;51.690;5.982;2022-12-07T00:14:49;30.00;;;20.63;;
6519;SDS011;3293;51.690;5.982;2022-12-07T00:19:49;29.43;;;20.97;;
6519;SDS011;3293;51.690;5.982;2022-12-07T00:24:49;26.67;;;18.80;;
6519;SDS011;3293;51.690;5.982;2022-12-07T00:29:49;30.13;;;20.60;;
6519;SDS011;3293;51.690;5.982;2022-12-07T00:34:49;31.03;;;21.27;;
6519;SDS011;3293;51.690;5.982;2022-12-07T00:39:48;29.87;;;20.57;;
6519;SDS011;3293;51.690;5.982;2022-12-07T00:44:49;33.53;;;22.63;;
6519;SDS011;3293;51.690;5.982;2022-12-07T00:49:49;35.47;;;22.63;;
6519;SDS011;3293;51.690;5.982;2022-12-07T00:54:48;31.30;;;22.83;;
6519;SDS011;3293;51.690;5.982;2022-12-07T00:59:48;30.63;;;21.73;;
6519;SDS011;3293;51.690;5.982;2022-12-07T01:04:49;37.80;;;23.30;;
6519;SDS011;3293;51.690;5.982;2022-12-07T01:09:49;39.57;;;22.83;;
6519;SDS011;3293;51.690;5.982;2022-12-07T01:14:49;30.83;;;21.47;;
6519;SDS011;3293;51.690;5.982;2022-12-07T01:19:49;29.13;;;20.57;;
6519;SDS011;3293;51.690;5.982;2022-12-07T01:24:49;29.67;;;20.80;;
6519;SDS011;3293;51.690;5.982;2022-12-07T01:29:49;29.83;;;20.43;;
6519;SDS011;3293;51.690;5.982;2022-12-07T01:34:50;31.17;;;21.33;;
6519;SDS011;3293;51.690;5.982;2022-12-07T01:39:50;32.50;;;22.60;;
6519;SDS011;3293;51.690;5.982;2022-12-07T01:50:16;30.33;;;20.60;;
6519;SDS011;3293;51.690;5.982;2022-12-07T01:55:16;33.13;;;21.57;;
6519;SDS011;3293;51.690;5.982;2022-12-07T02:00:17;30.93;;;20.67;;
6519;SDS011;3293;51.690;5.982;2022-12-07T02:05:17;34.47;;;21.10;;
6519;SDS011;3293;51.690;5.982;2022-12-07T02:10:28;32.90;;;22.60;;
6519;SDS011;3293;51.690;5.982;2022-12-07T02:21:09;35.57;;;23.67;;
6519;SDS011;3293;51.690;5.982;2022-12-07T02:31:38;38.97;;;23.93;;
6519;SDS011;3293;51.690;5.982;2022-12-07T02:36:54;37.03;;;23.90;;
6519;SDS011;3293;51.690;5.982;2022-12-07T02:42:02;37.57;;;22.43;;
6519;SDS011;3293;51.690;5.982;2022-12-07T02:47:11;34.70;;;23.40;;
6519;SDS011;3293;51.690;5.982;2022-12-07T02:52:13;31.67;;;23.17;;
6519;SDS011;3293;51.690;5.982;2022-12-07T03:13:09;39.27;;;23.13;;
6519;SDS011;3293;51.690;5.982;2022-12-07T03:18:19;34.40;;;21.90;;
6519;SDS011;3293;51.690;5.982;2022-12-07T03:23:22;33.77;;;22.03;;
6519;SDS011;3293;51.690;5.982;2022-12-07T03:28:24;35.50;;;20.77;;
6519;SDS011;3293;51.690;5.982;2022-12-07T03:33:31;34.40;;;20.97;;
6519;SDS011;3293;51.690;5.982;2022-12-07T03:39:27;43.50;;;22.80;;
6519;SDS011;3293;51.690;5.982;2022-12-07T03:44:12;33.93;;;22.43;;
6519;SDS011;3293;51.690;5.982;2022-12-07T03:49:23;35.30;;;21.50;;
6519;SDS011;3293;51.690;5.982;2022-12-07T03:54:33;35.30;;;20.63;;
6519;SDS011;3293;51.690;5.982;2022-12-07T03:59:43;36.43;;;22.57;;
6519;SDS011;3293;51.690;5.982;2022-12-07T04:04:44;33.03;;;19.63;;
6519;SDS011;3293;51.690;5.982;2022-12-07T04:09:45;42.97;;;22.97;;
6519;SDS011;3293;51.690;5.982;2022-12-07T04:14:45;32.17;;;20.70;;
6519;SDS011;3293;51.690;5.982;2022-12-07T04:19:44;37.93;;;21.50;;
6519;SDS011;3293;51.690;5.982;2022-12-07T04:24:44;38.07;;;21.60;;
6519;SDS011;3293;51.690;5.982;2022-12-07T04:29:44;35.03;;;21.20;;
6519;SDS011;3293;51.690;5.982;2022-12-07T04:34:44;40.47;;;20.50;;
6519;SDS011;3293;51.690;5.982;2022-12-07T04:39:44;28.80;;;18.73;;
6519;SDS011;3293;51.690;5.982;2022-12-07T04:44:44;33.20;;;18.40;;
6519;SDS011;3293;51.690;5.982;2022-12-07T04:49:44;33.87;;;17.87;;
6519;SDS011;3293;51.690;5.982;2022-12-07T04:54:44;27.77;;;16.57;;
6519;SDS011;3293;51.690;5.982;2022-12-07T04:59:44;26.37;;;16.67;;
6519;SDS011;3293;51.690;5.982;2022-12-07T05:04:44;28.30;;;17.07;;
6519;SDS011;3293;51.690;5.982;2022-12-07T05:09:44;26.80;;;16.03;;
6519;SDS011;3293;51.690;5.982;2022-12-07T05:14:44;21.03;;;15.90;;
6519;SDS011;3293;51.690;5.982;2022-12-07T05:19:44;29.17;;;15.30;;
6519;SDS011;3293;51.690;5.982;2022-12-07T05:24:44;26.83;;;15.03;;
6519;SDS011;3293;51.690;5.982;2022-12-07T05:29:44;21.93;;;13.47;;
6519;SDS011;3293;51.690;5.982;2022-12-07T05:34:44;21.57;;;14.17;;
6519;SDS011;3293;51.690;5.982;2022-12-07T05:39:44;26.40;;;16.07;;
6519;SDS011;3293;51.690;5.982;2022-12-07T05:44:44;24.80;;;14.03;;
6519;SDS011;3293;51.690;5.982;2022-12-07T05:49:45;23.03;;;12.87;;
6519;SDS011;3293;51.690;5.982;2022-12-07T05:54:45;24.97;;;12.27;;
6519;SDS011;3293;51.690;5.982;2022-12-07T05:59:45;21.43;;;13.30;;
6519;SDS011;3293;51.690;5.982;2022-12-07T06:04:45;25.67;;;12.43;;
6519;SDS011;3293;51.690;5.982;2022-12-07T06:09:48;18.13;;;12.03;;
6519;SDS011;3293;51.690;5.982;2022-12-07T06:14:48;17.60;;;11.57;;
6519;SDS011;3293;51.690;5.982;2022-12-07T06:19:49;19.63;;;11.90;;
6519;SDS011;3293;51.690;5.982;2022-12-07T06:24:49;18.77;;;11.50;;
6519;SDS011;3293;51.690;5.982;2022-12-07T06:29:49;24.93;;;12.97;;
6519;SDS011;3293;51.690;5.982;2022-12-07T06:34:49;21.97;;;13.00;;
6519;SDS011;3293;51.690;5.982;2022-12-07T06:39:49;27.73;;;12.50;;
6519;SDS011;3293;51.690;5.982;2022-12-07T06:44:49;21.43;;;11.40;;
6519;SDS011;3293;51.690;5.982;2022-12-07T06:49:49;19.10;;;11.73;;
6519;SDS011;3293;51.690;5.982;2022-12-07T06:54:49;18.60;;;11.83;;
6519;SDS011;3293;51.690;5.982;2022-12-07T06:59:49;17.40;;;10.90;;
6519;SDS011;3293;51.690;5.982;2022-12-07T07:04:49;18.07;;;11.77;;
6519;SDS011;3293;51.690;5.982;2022-12-07T07:09:49;16.83;;;11.43;;
6519;SDS011;3293;51.690;5.982;2022-12-07T07:14:49;23.10;;;11.83;;
6519;SDS011;3293;51.690;5.982;2022-12-07T07:19:49;25.10;;;13.13;;
6519;SDS011;3293;51.690;5.982;2022-12-07T07:24:49;18.93;;;11.90;;
6519;SDS011;3293;51.690;5.982;2022-12-07T07:29:49;20.60;;;12.20;;
6519;SDS011;3293;51.690;5.982;2022-12-07T07:34:49;20.47;;;12.07;;
6519;SDS011;3293;51.690;5.982;2022-12-07T07:39:49;22.57;;;13.00;;
6519;SDS011;3293;51.690;5.982;2022-12-07T07:44:49;16.50;;;11.57;;
6519;SDS011;3293;51.690;5.982;2022-12-07T07:49:49;21.30;;;11.70;;
6519;SDS011;3293;51.690;5.982;2022-12-07T07:54:48;19.37;;;12.63;;
6519;SDS011;3293;51.690;5.982;2022-12-07T07:59:48;20.83;;;12.10;;
6519;SDS011;3293;51.690;5.982;2022-12-07T08:04:48;24.57;;;13.07;;
6519;SDS011;3293;51.690;5.982;2022-12-07T08:09:48;24.83;;;13.03;;
6519;SDS011;3293;51.690;5.982;2022-12-07T08:14:48;21.83;;;12.23;;
6519;SDS011;3293;51.690;5.982;2022-12-07T08:19:48;24.77;;;11.37;;
6519;SDS011;3293;51.690;5.982;2022-12-07T08:24:48;31.50;;;13.10;;
6519;SDS011;3293;51.690;5.982;2022-12-07T08:29:48;16.53;;;11.90;;
6519;SDS011;3293;51.690;5.982;2022-12-07T08:34:48;21.33;;;12.50;;
6519;SDS011;3293;51.690;5.982;2022-12-07T08:39:49;18.70;;;11.80;;
6519;SDS011;3293;51.690;5.982;2022-12-07T08:44:49;23.67;;;12.37;;
6519;SDS011;3293;51.690;5.982;2022-12-07T08:49:49;18.57;;;10.83;;
6519;SDS011;3293;51.690;5.982;2022-12-07T08:54:51;14.47;;;10.73;;
6519;SDS011;3293;51.690;5.982;2022-12-07T08:59:51;17.77;;;10.47;;
6519;SDS011;3293;51.690;5.982;2022-12-07T09:04:51;19.20;;;11.13;;
6519;SDS011;3293;51.690;5.982;2022-12-07T09:09:51;20.43;;;12.53;;
6519;SDS011;3293;51.690;5.982;2022-12-07T09:14:51;22.40;;;13.20;;
6519;SDS011;3293;51.690;5.982;2022-12-07T09:19:51;20.13;;;13.20;;
6519;SDS011;3293;51.690;5.982;2022-12-07T09:24:51;26.67;;;14.43;;
6519;SDS011;3293;51.690;5.982;2022-12-07T09:29:51;24.10;;;13.60;;
6519;SDS011;3293;51.690;5.982;2022-12-07T09:34:51;19.13;;;12.63;;
6519;SDS011;3293;51.690;5.982;2022-12-07T09:39:51;23.63;;;13.60;;
6519;SDS011;3293;51.690;5.982;2022-12-07T09:44:51;21.20;;;13.07;;
6519;SDS011;3293;51.690;5.982;2022-12-07T09:49:51;21.83;;;12.17;;
6519;SDS011;3293;51.690;5.982;2022-12-07T09:54:53;22.70;;;13.40;;
6519;SDS011;3293;51.690;5.982;2022-12-07T09:59:54;19.83;;;11.77;;
6519;SDS011;3293;51.690;5.982;2022-12-07T10:05:00;21.80;;;10.80;;
6519;SDS011;3293;51.690;5.982;2022-12-07T10:10:03;17.07;;;11.80;;
6519;SDS011;3293;51.690;5.982;2022-12-07T10:15:06;16.57;;;11.87;;
6519;SDS011;3293;51.690;5.982;2022-12-07T10:20:17;21.80;;;12.40;;
6519;SDS011;3293;51.690;5.982;2022-12-07T10:25:21;14.17;;;11.27;;
6519;SDS011;3293;51.690;5.982;2022-12-07T10:30:25;19.93;;;11.23;;
6519;SDS011;3293;51.690;5.982;2022-12-07T10:35:26;14.27;;;10.23;;
6519;SDS011;3293;51.690;5.982;2022-12-07T10:40:35;16.27;;;9.57;;
6519;SDS011;3293;51.690;5.982;2022-12-07T10:45:36;17.33;;;8.60;;
6519;SDS011;3293;51.690;5.982;2022-12-07T10:50:49;10.73;;;8.67;;
6519;SDS011;3293;51.690;5.982;2022-12-07T11:01:56;14.17;;;8.37;;
6519;SDS011;3293;51.690;5.982;2022-12-07T11:12:56;11.00;;;5.27;;
6519;SDS011;3293;51.690;5.982;2022-12-07T11:23:13;10.63;;;3.67;;
6519;SDS011;3293;51.690;5.982;2022-12-07T11:33:47;7.03;;;3.80;;
6519;SDS011;3293;51.690;5.982;2022-12-07T11:38:58;11.43;;;4.23;;
6519;SDS011;3293;51.690;5.982;2022-12-07T11:44:04;9.40;;;4.83;;
6519;SDS011;3293;51.690;5.982;2022-12-07T11:54:40;9.57;;;4.13;;
6519;SDS011;3293;51.690;5.982;2022-12-07T11:59:45;8.40;;;3.87;;
6519;SDS011;3293;51.690;5.982;2022-12-07T12:10:00;7.60;;;4.30;;
6519;SDS011;3293;51.690;5.982;2022-12-07T12:20:40;8.77;;;4.70;;
6519;SDS011;3293;51.690;5.982;2022-12-07T12:25:45;8.33;;;4.33;;
6519;SDS011;3293;51.690;5.982;2022-12-07T12:31:04;10.93;;;3.83;;
6519;SDS011;3293;51.690;5.982;2022-12-07T12:36:18;4.23;;;3.37;;
6519;SDS011;3293;51.690;5.982;2022-12-07T13:28:36;6.03;;;3.87;;
6519;SDS011;3293;51.690;5.982;2022-12-07T13:33:41;7.93;;;3.87;;
6519;SDS011;3293;51.690;5.982;2022-12-07T13:38:48;5.83;;;3.77;;
6519;SDS011;3293;51.690;5.982;2022-12-07T13:44:03;9.03;;;3.90;;
6519;SDS011;3293;51.690;5.982;2022-12-07T13:49:20;7.73;;;3.90;;
6519;SDS011;3293;51.690;5.982;2022-12-07T13:54:25;8.73;;;3.70;;
6519;SDS011;3293;51.690;5.982;2022-12-07T13:59:25;8.63;;;3.77;;
6519;SDS011;3293;51.690;5.982;2022-12-07T14:04:30;4.73;;;3.30;;
6519;SDS011;3293;51.690;5.982;2022-12-07T14:09:35;7.23;;;4.00;;
6519;SDS011;3293;51.690;5.982;2022-12-07T14:14:34;5.93;;;3.67;;
6519;SDS011;3293;51.690;5.982;2022-12-07T14:19:40;6.23;;;3.70;;
6519;SDS011;3293;51.690;5.982;2022-12-07T14:24:45;5.83;;;3.63;;
6519;SDS011;3293;51.690;5.982;2022-12-07T14:29:45;9.87;;;4.07;;
6519;SDS011;3293;51.690;5.982;2022-12-07T14:34:56;6.30;;;3.07;;
6519;SDS011;3293;51.690;5.982;2022-12-07T14:39:57;6.57;;;3.27;;
6519;SDS011;3293;51.690;5.982;2022-12-07T14:44:57;7.90;;;3.23;;
6519;SDS011;3293;51.690;5.982;2022-12-07T14:49:58;7.60;;;3.03;;
6519;SDS011;3293;51.690;5.982;2022-12-07T14:54:58;7.67;;;3.10;;
6519;SDS011;3293;51.690;5.982;2022-12-07T14:59:58;6.03;;;3.17;;
6519;SDS011;3293;51.690;5.982;2022-12-07T15:04:57;5.27;;;3.50;;
6519;SDS011;3293;51.690;5.982;2022-12-07T15:09:58;7.80;;;4.13;;
6519;SDS011;3293;51.690;5.982;2022-12-07T15:14:58;8.47;;;3.03;;
6519;SDS011;3293;51.690;5.982;2022-12-07T15:19:58;7.47;;;2.80;;
6519;SDS011;3293;51.690;5.982;2022-12-07T15:24:58;5.67;;;3.10;;
6519;SDS011;3293;51.690;5.982;2022-12-07T15:29:58;5.60;;;3.13;;
6519;SDS011;3293;51.690;5.982;2022-12-07T15:34:58;3.90;;;3.03;;
6519;SDS011;3293;51.690;5.982;2022-12-07T15:39:58;3.97;;;3.13;;
6519;SDS011;3293;51.690;5.982;2022-12-07T15:44:58;8.23;;;3.53;;
6519;SDS011;3293;51.690;5.982;2022-12-07T15:50:04;5.47;;;3.70;;
6519;SDS011;3293;51.690;5.982;2022-12-07T15:55:06;7.30;;;4.40;;
6519;SDS011;3293;51.690;5.982;2022-12-07T16:00:08;8.73;;;7.00;;
6519;SDS011;3293;51.690;5.982;2022-12-07T16:05:09;5.43;;;3.80;;
6519;SDS011;3293;51.690;5.982;2022-12-07T16:10:09;4.20;;;3.80;;
6519;SDS011;3293;51.690;5.982;2022-12-07T16:15:09;4.60;;;3.33;;
6519;SDS011;3293;51.690;5.982;2022-12-07T16:20:09;3.80;;;3.37;;
6519;SDS011;3293;51.690;5.982;2022-12-07T16:25:09;5.07;;;4.13;;
6519;SDS011;3293;51.690;5.982;2022-12-07T16:30:11;5.10;;;3.57;;
6519;SDS011;3293;51.690;5.982;2022-12-07T16:35:13;5.20;;;3.53;;
6519;SDS011;3293;51.690;5.982;2022-12-07T16:40:13;7.70;;;3.70;;
6519;SDS011;3293;51.690;5.982;2022-12-07T16:45:13;4.83;;;3.83;;
6519;SDS011;3293;51.690;5.982;2022-12-07T16:50:13;4.60;;;4.03;;
6519;SDS011;3293;51.690;5.982;2022-12-07T16:55:13;5.47;;;4.10;;
6519;SDS011;3293;51.690;5.982;2022-12-07T17:00:13;8.37;;;5.30;;
6519;SDS011;3293;51.690;5.982;2022-12-07T17:05:13;7.67;;;5.33;;
6519;SDS011;3293;51.690;5.982;2022-12-07T17:10:13;16.23;;;7.43;;
6519;SDS011;3293;51.690;5.982;2022-12-07T17:15:13;5.53;;;4.93;;
6519;SDS011;3293;51.690;5.982;2022-12-07T17:20:16;7.43;;;5.20;;
6519;SDS011;3293;51.690;5.982;2022-12-07T17:25:17;6.80;;;6.07;;
6519;SDS011;3293;51.690;5.982;2022-12-07T17:30:17;10.27;;;6.40;;
6519;SDS011;3293;51.690;5.982;2022-12-07T17:35:17;7.90;;;5.70;;
6519;SDS011;3293;51.690;5.982;2022-12-07T17:40:17;10.43;;;6.07;;
6519;SDS011;3293;51.690;5.982;2022-12-07T17:45:17;8.37;;;6.47;;
6519;SDS011;3293;51.690;5.982;2022-12-07T17:50:17;12.77;;;8.83;;
6519;SDS011;3293;51.690;5.982;2022-12-07T17:55:37;10.30;;;7.43;;
6519;SDS011;3293;51.690;5.982;2022-12-07T18:00:37;16.67;;;9.40;;
6519;SDS011;3293;51.690;5.982;2022-12-07T18:05:37;12.90;;;10.00;;
6519;SDS011;3293;51.690;5.982;2022-12-07T18:10:41;13.83;;;10.67;;
6519;SDS011;3293;51.690;5.982;2022-12-07T18:15:41;14.00;;;10.13;;
6519;SDS011;3293;51.690;5.982;2022-12-07T18:20:41;16.97;;;12.60;;
6519;SDS011;3293;51.690;5.982;2022-12-07T18:25:45;17.60;;;11.30;;
6519;SDS011;3293;51.690;5.982;2022-12-07T18:30:47;17.03;;;13.30;;
6519;SDS011;3293;51.690;5.982;2022-12-07T18:35:49;17.67;;;11.57;;
6519;SDS011;3293;51.690;5.982;2022-12-07T18:40:49;15.70;;;12.20;;
6519;SDS011;3293;51.690;5.982;2022-12-07T18:45:50;17.13;;;13.23;;
6519;SDS011;3293;51.690;5.982;2022-12-07T18:51:00;17.13;;;13.40;;
6519;SDS011;3293;51.690;5.982;2022-12-07T18:56:05;19.67;;;14.00;;
6519;SDS011;3293;51.690;5.982;2022-12-07T19:01:08;26.47;;;14.63;;
6519;SDS011;3293;51.690;5.982;2022-12-07T19:06:09;24.03;;;16.40;;
6519;SDS011;3293;51.690;5.982;2022-12-07T19:11:19;21.33;;;14.87;;
6519;SDS011;3293;51.690;5.982;2022-12-07T19:16:42;17.87;;;13.17;;
6519;SDS011;3293;51.690;5.982;2022-12-07T19:21:43;18.87;;;12.87;;
6519;SDS011;3293;51.690;5.982;2022-12-07T19:26:43;18.47;;;12.83;;
6519;SDS011;3293;51.690;5.982;2022-12-07T19:31:43;18.40;;;12.53;;
6519;SDS011;3293;51.690;5.982;2022-12-07T19:36:43;17.97;;;12.53;;
6519;SDS011;3293;51.690;5.982;2022-12-07T19:41:44;22.27;;;13.17;;
6519;SDS011;3293;51.690;5.982;2022-12-07T19:46:47;19.40;;;13.43;;
6519;SDS011;3293;51.690;5.982;2022-12-07T19:51:51;19.23;;;13.10;;
6519;SDS011;3293;51.690;5.982;2022-12-07T19:56:54;17.23;;;13.93;;
6519;SDS011;3293;51.690;5.982;2022-12-07T20:01:54;19.63;;;13.67;;
6519;SDS011;3293;51.690;5.982;2022-12-07T20:06:56;22.70;;;15.37;;
6519;SDS011;3293;51.690;5.982;2022-12-07T20:11:58;22.40;;;14.63;;
6519;SDS011;3293;51.690;5.982;2022-12-07T20:17:16;19.60;;;14.00;;
6519;SDS011;3293;51.690;5.982;2022-12-07T20:22:16;20.20;;;13.43;;
6519;SDS011;3293;51.690;5.982;2022-12-07T20:27:16;17.57;;;13.80;;
6519;SDS011;3293;51.690;5.982;2022-12-07T20:32:16;18.13;;;13.50;;
6519;SDS011;3293;51.690;5.982;2022-12-07T20:37:16;17.43;;;13.10;;
6519;SDS011;3293;51.690;5.982;2022-12-07T20:42:16;19.77;;;12.97;;
6519;SDS011;3293;51.690;5.982;2022-12-07T20:47:35;15.27;;;12.40;;
6519;SDS011;3293;51.690;5.982;2022-12-07T20:52:35;15.93;;;12.97;;
6519;SDS011;3293;51.690;5.982;2022-12-07T20:57:35;20.93;;;13.30;;
6519;SDS011;3293;51.690;5.982;2022-12-07T21:02:37;16.50;;;13.73;;
6519;SDS011;3293;51.690;5.982;2022-12-07T21:07:38;20.83;;;13.60;;
6519;SDS011;3293;51.690;5.982;2022-12-07T21:12:38;20.93;;;13.20;;
6519;SDS011;3293;51.690;5.982;2022-12-07T21:17:38;16.53;;;12.50;;
6519;SDS011;3293;51.690;5.982;2022-12-07T21:22:38;18.23;;;13.27;;
6519;SDS011;3293;51.690;5.982;2022-12-07T21:27:37;20.53;;;12.07;;
6519;SDS011;3293;51.690;5.982;2022-12-07T21:32:37;16.53;;;12.83;;
6519;SDS011;3293;51.690;5.982;2022-12-07T21:37:37;16.73;;;13.00;;
6519;SDS011;3293;51.690;5.982;2022-12-07T21:42:38;14.70;;;10.77;;
6519;SDS011;3293;51.690;5.982;2022-12-07T21:47:38;21.70;;;11.97;;
6519;SDS011;3293;51.690;5.982;2022-12-07T21:52:38;13.13;;;10.50;;
6519;SDS011;3293;51.690;5.982;2022-12-07T21:57:38;13.67;;;12.20;;
6519;SDS011;3293;51.690;5.982;2022-12-07T22:02:38;15.43;;;10.90;;
6519;SDS011;3293;51.690;5.982;2022-12-07T22:07:38;12.30;;;10.80;;
6519;SDS011;3293;51.690;5.982;2022-12-07T22:12:39;17.67;;;10.57;;
6519;SDS011;3293;51.690;5.982;2022-12-07T22:17:39;15.30;;;11.00;;
6519;SDS011;3293;51.690;5.982;2022-12-07T22:22:39;13.43;;;10.83;;
6519;SDS011;3293;51.690;5.982;2022-12-07T22:27:39;15.97;;;10.70;;
6519;SDS011;3293;51.690;5.982;2022-12-07T22:32:39;14.97;;;11.47;;
6519;SDS011;3293;51.690;5.982;2022-12-07T22:37:39;15.33;;;10.70;;
6519;SDS011;3293;51.690;5.982;2022-12-07T22:42:40;13.40;;;10.80;;
6519;SDS011;3293;51.690;5.982;2022-12-07T22:47:40;14.17;;;10.60;;
6519;SDS011;3293;51.690;5.982;2022-12-07T22:52:40;13.10;;;10.60;;
6519;SDS011;3293;51.690;5.982;2022-12-07T22:57:40;10.93;;;9.70;;
6519;SDS011;3293;51.690;5.982;2022-12-07T23:02:40;15.10;;;9.97;;
6519;SDS011;3293;51.690;5.982;2022-12-07T23:07:40;16.77;;;10.20;;
6519;SDS011;3293;51.690;5.982;2022-12-07T23:12:40;14.83;;;10.10;;
6519;SDS011;3293;51.690;5.982;2022-12-07T23:18:06;12.03;;;8.73;;
6519;SDS011;3293;51.690;5.982;2022-12-07T23:23:05;11.27;;;8.60;;
6519;SDS011;3293;51.690;5.982;2022-12-07T23:28:05;12.73;;;8.10;;
6519;SDS011;3293;51.690;5.982;2022-12-07T23:33:05;12.93;;;8.20;;
6519;SDS011;3293;51.690;5.982;2022-12-07T23:38:05;9.87;;;8.37;;
6519;SDS011;3293;51.690;5.982;2022-12-07T23:43:05;14.57;;;8.50;;
6519;SDS011;3293;51.690;5.982;2022-12-07T23:48:05;12.40;;;8.03;;
6519;SDS011;3293;51.690;5.982;2022-12-07T23:53:05;14.03;;;9.50;;
6519;SDS011;3293;51.690;5.982;2022-12-07T23:58:05;11.37;;;9.63;;
